Time;durP1;ratioP1;P1;durP2;ratioP2;P2;SDS_P1;SDS_P2;PMS_P1;PMS_P2;Temp;Humidity;BMP_temperature;BMP_pressure;BME280_temperature;BME280_humidity;BME280_pressure;Samples;Min_cycle;Max_cycle;Signal;HPM_P1;HPM_P2
2024/04/10 00:00:52;;;;;;;11.18;2.25;;;;;;;13.80;51.66;102018.19;5189536;27;94781;-83
2024/04/10 00:03:18;;;;;;;14.95;2.67;;;;;;;13.67;52.06;102014.47;5178484;27;95443;-83
2024/04/10 00:05:44;;;;;;;8.70;2.55;;;;;;;13.56;52.55;102015.09;5192675;27;95830;-84
2024/04/10 00:08:10;;;;;;;9.50;3.10;;;;;;;13.46;53.05;102014.06;5189986;27;95528;-84
2024/04/10 00:10:36;;;;;;;11.77;2.40;;;;;;;13.40;53.02;102027.03;5171789;27;95147;-84
2024/04/10 00:13:02;;;;;;;12.02;3.05;;;;;;;13.36;53.28;102031.31;5201157;26;95706;-85
2024/04/10 00:15:27;;;;;;;12.05;2.70;;;;;;;13.31;53.83;102031.25;5196066;27;95584;-85
2024/04/10 00:17:53;;;;;;;15.95;3.55;;;;;;;13.27;53.68;102041.59;5171787;27;94962;-84
2024/04/10 00:20:19;;;;;;;11.65;3.40;;;;;;;13.23;54.25;102045.00;5194677;27;94843;-84
2024/04/10 00:22:45;;;;;;;11.55;3.10;;;;;;;13.20;54.56;102047.56;5195901;27;94884;-84
2024/04/10 00:25:10;;;;;;;11.23;2.90;;;;;;;13.18;54.63;102046.63;5167256;27;98547;-84
2024/04/10 00:27:36;;;;;;;12.82;3.50;;;;;;;13.16;54.64;102061.44;5196893;27;97964;-84
2024/04/10 00:30:01;;;;;;;12.85;3.33;;;;;;;13.12;55.00;102057.88;5193873;27;94859;-83
2024/04/10 00:32:27;;;;;;;15.32;3.28;;;;;;;13.11;54.84;102059.59;5193766;27;94780;-83
2024/04/10 00:34:52;;;;;;;9.43;3.30;;;;;;;13.08;55.02;102054.31;5195240;27;98420;-83
2024/04/10 00:37:18;;;;;;;12.48;3.08;;;;;;;13.06;55.08;102060.34;5192876;27;97848;-84
2024/04/10 00:39:43;;;;;;;12.02;3.17;;;;;;;13.03;55.51;102069.03;5160733;27;94894;-84
2024/04/10 00:42:09;;;;;;;12.95;3.08;;;;;;;13.01;55.35;102068.13;5169858;27;95009;-83
2024/04/10 00:44:46;;;;;;;11.63;3.38;;;;;;;12.98;55.72;102077.63;5159340;27;98435;-84
2024/04/10 00:47:12;;;;;;;14.15;3.40;;;;;;;12.98;55.45;102081.16;5217892;27;95771;-85
2024/04/10 00:49:37;;;;;;;11.77;3.60;;;;;;;12.96;55.54;102090.72;5164845;27;94944;-84
2024/04/10 00:52:03;;;;;;;13.48;3.25;;;;;;;12.94;55.70;102095.91;5191209;27;95418;-84
2024/04/10 00:54:34;;;;;;;14.15;3.47;;;;;;;12.95;55.97;102091.53;5190932;27;98101;-84
2024/04/10 00:56:59;;;;;;;13.40;3.85;;;;;;;12.94;55.92;102095.91;5194592;27;95551;-84
2024/04/10 00:59:25;;;;;;;14.00;3.78;;;;;;;12.94;55.90;102100.22;5165778;27;94822;-84
2024/04/10 01:01:51;;;;;;;11.38;3.15;;;;;;;12.94;56.20;102103.75;5168765;27;95165;-83
2024/04/10 01:04:16;;;;;;;13.10;2.90;;;;;;;12.96;55.98;102109.03;5156346;27;95608;-84
2024/04/10 01:06:41;;;;;;;14.23;3.53;;;;;;;12.94;56.01;102110.72;5192335;27;97459;-84
2024/04/10 01:09:07;;;;;;;15.48;3.30;;;;;;;12.93;56.02;102111.59;5190061;26;94942;-83
2024/04/10 01:11:33;;;;;;;10.88;3.00;;;;;;;12.91;56.35;102121.13;5188324;27;94964;-83
2024/04/10 01:13:58;;;;;;;15.73;3.50;;;;;;;12.89;56.20;102118.47;5192314;27;97097;-83
2024/04/10 01:16:24;;;;;;;17.38;4.00;;;;;;;12.91;56.37;102114.16;5164181;27;97996;-84
2024/04/10 01:18:50;;;;;;;8.98;2.90;;;;;;;12.92;56.33;102122.88;5187822;27;94972;-84
2024/04/10 01:21:15;;;;;;;13.95;3.08;;;;;;;12.90;56.40;102124.59;5165818;27;94957;-84
2024/04/10 01:23:41;;;;;;;15.35;3.08;;;;;;;12.90;56.43;102129.84;5164811;27;98592;-83
2024/04/10 01:26:06;;;;;;;13.18;3.15;;;;;;;12.89;56.46;102131.56;5163659;27;96026;-83
2024/04/10 01:28:31;;;;;;;15.40;2.85;;;;;;;12.88;56.40;102129.78;5195191;27;94981;-83
2024/04/10 01:30:57;;;;;;;15.10;3.38;;;;;;;12.90;56.50;102135.06;5160530;27;94989;-84
2024/04/10 01:33:24;;;;;;;13.40;4.03;;;;;;;12.88;56.63;102140.25;5192032;27;95812;-83
2024/04/10 01:35:49;;;;;;;14.27;3.60;;;;;;;12.89;56.92;102142.06;5194376;27;95743;-84
2024/04/10 01:38:15;;;;;;;17.90;3.92;;;;;;;12.91;56.93;102147.31;5189736;27;94862;-84
2024/04/10 01:40:40;;;;;;;11.95;3.22;;;;;;;12.92;56.90;102151.69;5167092;27;95092;-84
2024/04/10 01:43:06;;;;;;;17.55;3.83;;;;;;;12.91;56.57;102153.44;5162480;27;99160;-84
2024/04/10 01:45:31;;;;;;;17.08;3.60;;;;;;;12.91;57.21;102149.94;5192237;27;96000;-83
2024/04/10 01:47:57;;;;;;;14.98;3.10;;;;;;;12.91;56.95;102153.44;5189710;27;94869;-84
2024/04/10 01:50:22;;;;;;;19.30;3.50;;;;;;;12.91;56.86;102161.28;5190599;27;95005;-84
2024/04/10 01:52:48;;;;;;;19.75;3.90;;;;;;;12.92;56.84;102165.69;5171037;27;95795;-83
2024/04/10 01:55:13;;;;;;;18.55;3.45;;;;;;;12.93;56.99;102167.44;5190389;27;97778;-83
2024/04/10 01:57:39;;;;;;;14.77;3.70;;;;;;;12.96;57.12;102169.28;5193644;27;94793;-83
2024/04/10 02:00:05;;;;;;;16.90;3.85;;;;;;;12.97;57.10;102183.25;5190929;27;95055;-83
2024/04/10 02:02:36;;;;;;;15.85;3.78;;;;;;;12.99;57.15;102171.06;5188791;27;95269;-82
2024/04/10 02:05:01;;;;;;;11.23;3.05;;;;;;;13.01;57.32;102178.13;5193672;27;95528;-83
2024/04/10 02:07:27;;;;;;;14.10;3.55;;;;;;;13.03;56.79;102183.38;5248793;26;94880;-83
2024/04/10 02:09:52;;;;;;;14.85;3.30;;;;;;;13.03;56.98;102184.28;5190643;27;94900;-83
2024/04/10 02:12:17;;;;;;;13.43;3.25;;;;;;;13.04;57.20;102187.78;5190600;27;98556;-83
2024/04/10 02:14:43;;;;;;;14.77;3.47;;;;;;;13.04;57.25;102188.66;5192038;27;98548;-83
2024/04/10 02:17:09;;;;;;;14.30;3.65;;;;;;;13.06;57.18;102186.97;5165109;27;95377;-83
2024/04/10 02:19:34;;;;;;;14.88;2.75;;;;;;;13.08;57.19;102192.22;5184950;27;94940;-83
2024/04/10 02:22:00;;;;;;;18.02;3.50;;;;;;;13.09;57.17;102192.28;5166064;27;97931;-83
2024/04/10 02:24:25;;;;;;;13.50;3.42;;;;;;;13.11;57.08;102205.41;5194007;27;97677;-83
2024/04/10 02:26:51;;;;;;;12.25;3.30;;;;;;;13.11;57.30;102203.66;5164058;27;94826;-83
2024/04/10 02:29:17;;;;;;;13.63;3.47;;;;;;;13.13;57.22;102214.19;5192021;27;95260;-83
2024/04/10 02:31:42;;;;;;;21.20;3.58;;;;;;;13.14;56.89;102216.84;5190467;27;98828;-84
2024/04/10 02:34:08;;;;;;;13.55;3.17;;;;;;;13.13;57.08;102222.94;5189150;27;95576;-83
2024/04/10 02:36:34;;;;;;;13.85;3.00;;;;;;;13.13;57.31;102220.31;5172724;27;94937;-83
2024/04/10 02:38:59;;;;;;;13.45;3.33;;;;;;;13.15;57.01;102228.22;5192635;27;95092;-83
2024/04/10 02:41:24;;;;;;;15.80;3.38;;;;;;;13.17;56.82;102231.75;5189303;27;98079;-83
2024/04/10 02:43:50;;;;;;;17.15;3.88;;;;;;;13.17;57.04;102233.50;5198985;27;96792;-83
2024/04/10 02:46:16;;;;;;;18.52;3.75;;;;;;;13.16;57.31;102240.47;5191395;27;95439;-83
2024/04/10 02:48:43;;;;;;;13.88;3.25;;;;;;;13.20;57.13;102241.44;5161685;27;94929;-84
2024/04/10 02:51:08;;;;;;;13.98;3.20;;;;;;;13.20;57.25;102246.66;5180795;27;97737;-83
2024/04/10 02:53:34;;;;;;;16.60;3.50;;;;;;;13.20;57.20;102262.38;5193367;27;95847;-83
2024/04/10 02:55:59;;;;;;;14.63;3.17;;;;;;;13.19;56.92;102255.38;5167654;27;94918;-83
2024/04/10 02:58:25;;;;;;;17.35;3.13;;;;;;;13.18;56.77;102259.72;5191260;26;95058;-83
2024/04/10 03:00:55;;;;;;;14.60;3.38;;;;;;;13.18;56.85;102270.22;5175618;27;98468;-83
2024/04/10 03:03:22;;;;;;;13.95;3.22;;;;;;;13.20;56.93;102278.13;5159952;27;97789;-84
2024/04/10 03:05:59;;;;;;;16.35;3.25;;;;;;;13.17;57.15;102281.53;5160729;27;94908;-83
2024/04/10 03:08:24;;;;;;;9.93;3.05;;;;;;;13.20;57.17;102288.59;5163872;27;95813;-84
2024/04/10 03:10:49;;;;;;;10.65;2.70;;;;;;;13.20;56.70;102288.59;5191331;27;94926;-84
2024/04/10 03:13:15;;;;;;;16.08;3.38;;;;;;;13.18;56.99;102293.78;5195041;27;97942;-84
2024/04/10 03:15:41;;;;;;;13.88;3.50;;;;;;;13.17;56.87;102305.09;5179885;27;94934;-83
2024/04/10 03:18:07;;;;;;;13.48;2.70;;;;;;;13.16;56.81;102303.34;5192621;27;94917;-83
2024/04/10 03:20:32;;;;;;;14.98;3.08;;;;;;;13.14;56.94;102308.53;5169425;27;98649;-83
2024/04/10 03:22:59;;;;;;;17.38;3.15;;;;;;;13.12;56.36;102309.38;5191881;27;95769;-82
2024/04/10 03:25:25;;;;;;;16.25;3.30;;;;;;;13.09;56.80;102315.41;5186628;27;94845;-83
2024/04/10 03:27:50;;;;;;;15.88;3.08;;;;;;;13.06;56.72;102310.06;5194838;27;94904;-83
2024/04/10 03:30:16;;;;;;;12.23;3.35;;;;;;;13.04;56.67;102319.63;5189569;27;95519;-83
2024/04/10 03:32:42;;;;;;;14.90;2.75;;;;;;;13.03;56.91;102323.13;5163731;27;98850;-83
2024/04/10 03:35:07;;;;;;;18.23;3.40;;;;;;;13.01;56.79;102327.44;5176696;27;95025;-83
2024/04/10 03:37:33;;;;;;;12.50;2.95;;;;;;;13.01;56.99;102331.75;5189316;27;95054;-83
2024/04/10 03:39:59;;;;;;;17.83;3.08;;;;;;;12.98;56.85;102335.19;5199870;26;95647;-83
2024/04/10 03:42:25;;;;;;;15.02;3.20;;;;;;;12.98;57.05;102334.28;5191358;27;97783;-83
2024/04/10 03:44:50;;;;;;;14.23;3.42;;;;;;;12.97;56.97;102349.13;5194055;27;95012;-83
2024/04/10 03:47:16;;;;;;;12.57;3.47;;;;;;;12.98;56.89;102344.75;5186899;27;95012;-83
2024/04/10 03:49:41;;;;;;;17.08;3.35;;;;;;;12.98;57.05;102348.28;5167187;27;97961;-83
2024/04/10 03:52:06;;;;;;;17.77;3.45;;;;;;;12.98;56.90;102350.91;5158463;27;98030;-83
2024/04/10 03:54:32;;;;;;;14.15;2.72;;;;;;;12.99;57.03;102359.66;5190918;27;95003;-83
2024/04/10 03:56:57;;;;;;;13.88;3.42;;;;;;;12.98;56.63;102358.78;5191518;27;95020;-83
2024/04/10 03:59:23;;;;;;;16.55;3.15;;;;;;;13.00;57.11;102354.47;5190125;27;96365;-83
2024/04/10 04:01:48;;;;;;;13.88;3.05;;;;;;;13.03;57.31;102371.97;5165084;27;97912;-83
2024/04/10 04:04:14;;;;;;;11.57;2.95;;;;;;;13.06;57.10;102372.06;5161667;27;94960;-83
2024/04/10 04:06:41;;;;;;;15.10;3.00;;;;;;;13.08;56.89;102380.84;5191819;27;94851;-83
2024/04/10 04:09:09;;;;;;;12.82;2.75;;;;;;;13.08;56.86;102384.38;5162809;27;98586;-83
2024/04/10 04:11:36;;;;;;;12.68;3.05;;;;;;;13.07;57.01;102386.94;5191103;27;95598;-83
2024/04/10 04:14:03;;;;;;;11.85;2.88;;;;;;;13.08;56.88;102396.56;5157477;27;95310;-83
2024/04/10 04:16:29;;;;;;;24.00;3.00;;;;;;;13.08;56.94;102397.47;5168735;27;95175;-83
2024/04/10 04:18:55;;;;;;;14.00;2.63;;;;;;;13.09;57.07;102396.59;5160296;27;95890;-83
2024/04/10 04:21:20;;;;;;;12.88;3.13;;;;;;;13.10;57.06;102403.63;5162860;27;98551;-84
2024/04/10 04:23:46;;;;;;;15.93;3.00;;;;;;;13.11;56.99;102405.38;5192420;27;94921;-83
2024/04/10 04:26:11;;;;;;;10.93;2.97;;;;;;;13.12;57.08;102416.78;5190626;27;94808;-84
2024/04/10 04:28:37;;;;;;;17.60;2.90;;;;;;;13.12;57.14;102422.03;5190736;27;95931;-83
2024/04/10 04:31:03;;;;;;;11.68;2.70;;;;;;;13.11;56.86;102426.34;5158022;27;96647;-83
2024/04/10 04:33:34;;;;;;;14.75;3.10;;;;;;;13.11;56.79;102428.97;5216566;26;95433;-83
2024/04/10 04:35:59;;;;;;;17.45;3.58;;;;;;;13.11;56.82;102433.34;5193420;27;95089;-83
2024/04/10 04:38:26;;;;;;;11.95;2.47;;;;;;;13.11;56.99;102438.56;5166038;27;97822;-84
2024/04/10 04:40:51;;;;;;;11.10;2.70;;;;;;;13.12;57.24;102443.84;5186054;27;95902;-83
2024/04/10 04:43:17;;;;;;;15.48;2.83;;;;;;;13.14;56.88;102442.16;5191601;27;94863;-83
2024/04/10 04:45:42;;;;;;;14.82;2.97;;;;;;;13.14;56.97;102452.63;5185514;27;94824;-83
2024/04/10 04:48:10;;;;;;;11.15;2.70;;;;;;;13.14;56.75;102455.25;5193201;27;95802;-83
2024/04/10 04:50:41;;;;;;;11.90;2.47;;;;;;;13.13;56.97;102457.84;5190638;27;96584;-83
2024/04/10 04:53:10;;;;;;;16.90;2.72;;;;;;;13.13;56.65;102460.44;5162102;27;95041;-83
2024/04/10 04:55:36;;;;;;;18.65;3.03;;;;;;;13.13;56.93;102466.56;5168926;27;94906;-84
2024/04/10 04:58:04;;;;;;;11.65;3.05;;;;;;;13.12;56.85;102475.28;5188055;27;95925;-83
2024/04/10 05:00:30;;;;;;;14.13;2.50;;;;;;;13.11;56.79;102477.88;5161170;27;97795;-83
2024/04/10 05:02:59;;;;;;;17.83;3.28;;;;;;;13.11;56.75;102481.38;5187646;26;94990;-83
2024/04/10 05:05:25;;;;;;;13.50;2.88;;;;;;;13.14;56.82;102497.19;5193860;27;95236;-83
2024/04/10 05:07:51;;;;;;;14.32;3.28;;;;;;;13.14;56.90;102497.19;5187377;27;95647;-83
2024/04/10 05:10:17;;;;;;;14.93;3.20;;;;;;;13.16;56.92;102496.34;5166545;27;97912;-83
2024/04/10 05:12:43;;;;;;;13.13;3.22;;;;;;;13.17;56.81;102498.09;5167777;27;94868;-83
2024/04/10 05:15:10;;;;;;;13.55;2.92;;;;;;;13.21;56.88;102507.81;5194808;27;95009;-83
2024/04/10 05:17:41;;;;;;;13.10;2.45;;;;;;;13.24;56.89;102514.03;5186961;27;95930;-83
2024/04/10 05:20:14;;;;;;;11.57;2.72;;;;;;;13.24;56.71;102515.78;5169132;27;98837;-81
2024/04/10 05:22:41;;;;;;;14.18;2.63;;;;;;;13.23;56.81;102519.25;5191090;27;94978;-85
2024/04/10 05:25:06;;;;;;;10.57;2.63;;;;;;;13.22;56.64;102523.59;5191739;27;95441;-86
2024/04/10 05:27:32;;;;;;;11.25;3.08;;;;;;;13.23;56.86;102534.97;5164650;27;98137;-90
2024/04/10 05:30:00;;;;;;;21.27;3.45;;;;;;;13.23;56.45;102529.75;5185405;27;97817;-88
2024/04/10 05:32:26;;;;;;;13.90;2.63;;;;;;;13.24;56.63;102536.75;5198666;27;94945;-88
2024/04/10 05:34:53;;;;;;;15.57;2.83;;;;;;;13.25;56.69;102543.78;5173684;27;95038;-88
2024/04/10 05:37:19;;;;;;;11.40;2.13;;;;;;;13.25;56.47;102554.25;5162270;27;98432;-89
2024/04/10 05:39:44;;;;;;;14.68;3.63;;;;;;;13.24;56.72;102552.47;5162641;27;98521;-88
2024/04/10 05:42:10;;;;;;;15.55;2.70;;;;;;;13.25;56.50;102560.38;5163707;27;94974;-88
2024/04/10 05:44:35;;;;;;;13.55;2.35;;;;;;;13.26;56.42;102558.63;5156574;27;95082;-88
2024/04/10 05:47:01;;;;;;;9.57;2.65;;;;;;;13.27;56.25;102570.91;5192909;27;98706;-88
2024/04/10 05:49:32;;;;;;;12.30;2.53;;;;;;;13.28;56.67;102575.28;5194967;26;97377;-89
2024/04/10 05:51:57;;;;;;;13.80;3.25;;;;;;;13.28;56.25;102577.91;5174350;27;94859;-89
2024/04/10 05:54:24;;;;;;;14.45;2.72;;;;;;;13.28;56.13;102583.13;5190003;27;95046;-88
2024/04/10 05:56:49;;;;;;;10.48;2.70;;;;;;;13.27;56.48;102582.25;5159911;27;98411;-89
2024/04/10 05:59:15;;;;;;;14.52;2.38;;;;;;;13.30;56.37;102591.97;5190694;27;95588;-88
2024/04/10 06:01:40;;;;;;;15.00;3.10;;;;;;;13.30;56.42;102597.22;5189358;27;94820;-89
2024/04/10 06:04:06;;;;;;;13.90;2.92;;;;;;;13.31;56.06;102601.63;5190541;27;95124;-89
2024/04/10 06:06:32;;;;;;;12.98;2.63;;;;;;;13.32;55.90;102606.03;5187935;27;98495;-89
2024/04/10 06:08:58;;;;;;;11.73;2.53;;;;;;;13.32;56.04;102617.41;5195660;27;98495;-89
2024/04/10 06:11:27;;;;;;;15.57;3.38;;;;;;;13.34;56.17;102620.06;5162398;27;94823;-90
2024/04/10 06:13:53;;;;;;;;;;;;;;;13.35;56.16;102624.47;5187322;27;94836;-90
2024/04/10 06:16:19;;;;;;;9.65;2.70;;;;;;;13.44;56.15;102635.22;5199464;27;98190;-87
2024/04/10 06:18:44;;;;;;;14.70;2.50;;;;;;;13.44;55.74;102629.97;5161065;27;98294;-86
2024/04/10 06:21:10;;;;;;;13.05;2.92;;;;;;;13.43;56.00;102628.19;5168280;27;95600;-87
2024/04/10 06:23:35;;;;;;;11.82;2.80;;;;;;;13.43;55.89;102629.94;5188312;27;94983;-88
2024/04/10 06:26:01;;;;;;;18.17;2.67;;;;;;;13.43;55.89;102643.03;5189287;27;98646;-88
2024/04/10 06:28:28;;;;;;;14.88;2.85;;;;;;;13.42;55.59;102643.88;5160957;27;98539;-88
2024/04/10 06:31:04;;;;;;;12.20;2.65;;;;;;;13.42;56.04;102649.13;5198065;27;94845;-87
2024/04/10 06:33:31;;;;;;;14.77;3.30;;;;;;;13.48;56.12;102647.56;5205537;27;95045;-86
2024/04/10 06:36:03;;;;;;;10.88;2.90;;;;;;;13.56;56.00;102649.53;5161895;27;98372;-89
2024/04/10 06:38:30;;;;;;;16.17;3.30;;;;;;;13.65;56.15;102660.28;5195865;27;98353;-87
2024/04/10 06:40:57;;;;;;;11.60;2.30;;;;;;;13.69;56.02;102660.41;5188535;27;94964;-87
2024/04/10 06:43:22;;;;;;;12.77;2.55;;;;;;;13.76;55.75;102673.69;5150065;27;94964;-86
2024/04/10 06:45:58;;;;;;;15.55;2.47;;;;;;;13.78;55.99;102678.16;5182975;27;98443;-86
2024/04/10 06:48:25;;;;;;;16.58;2.80;;;;;;;13.86;55.74;102681.88;5152153;27;96664;-87
2024/04/10 06:51:01;;;;;;;15.77;2.97;;;;;;;13.90;55.60;102682.84;5191580;27;94798;-85
2024/04/10 06:53:27;;;;;;;15.23;3.13;;;;;;;13.97;55.37;102682.16;5192806;27;94832;-89
2024/04/10 06:55:55;;;;;;;14.23;2.60;;;;;;;14.02;55.52;102679.69;5164077;27;95938;-90
2024/04/10 06:58:21;;;;;;;13.70;2.97;;;;;;;14.05;55.16;102680.66;5189408;26;97813;-89
2024/04/10 07:01:02;;;;;;;10.43;2.85;;;;;;;14.06;55.13;102685.06;5197020;26;95673;-89
2024/04/10 07:03:28;;;;;;;11.25;3.20;;;;;;;14.08;55.28;102683.38;5194545;27;94996;-88
2024/04/10 07:06:06;;;;;;;14.30;2.83;;;;;;;14.11;55.11;102685.19;5175655;26;96840;-89
2024/04/10 07:08:33;;;;;;;9.18;3.05;;;;;;;14.14;54.90;102690.50;5199718;27;97804;-88
2024/04/10 07:10:58;;;;;;;13.48;3.03;;;;;;;14.14;55.00;102695.75;5211097;27;94901;-88
2024/04/10 07:13:25;;;;;;;16.65;2.60;;;;;;;14.20;55.09;102689.78;5195037;27;94926;-89
2024/04/10 07:16:02;;;;;;;13.02;2.60;;;;;;;14.24;54.74;102694.25;5202668;27;95741;-88
2024/04/10 07:18:29;;;;;;;14.88;3.10;;;;;;;14.29;54.42;102705.78;5184483;27;95612;-89
2024/04/10 07:21:11;;;;;;;14.38;2.78;;;;;;;14.32;54.37;102715.50;5168858;27;94941;-89
2024/04/10 07:23:40;;;;;;;;;;;;;;;14.34;55.03;102712.03;5168658;27;95084;-88
2024/04/10 07:26:07;;;;;;;;;;;;;;;14.48;55.31;102712.41;5198521;27;95834;-88
2024/04/10 07:28:33;;;;;;;12.95;2.58;;;;;;;14.65;55.10;102715.50;5196570;27;98753;-89
2024/04/10 07:30:58;;;;;;;14.82;2.65;;;;;;;14.82;55.41;102726.44;5194192;27;94835;-89
2024/04/10 07:33:23;;;;;;;10.82;2.33;;;;;;;15.10;56.06;102721.84;5194566;27;95365;-89
2024/04/10 07:35:49;;;;;;;16.45;2.72;;;;;;;15.41;55.08;102718.19;5214940;27;95687;-89
2024/04/10 07:38:15;;;;;;;12.63;2.55;;;;;;;15.67;54.98;102726.66;5185145;27;98613;-89
2024/04/10 07:40:51;;;;;;;13.80;2.60;;;;;;;15.95;54.63;102728.19;5165765;27;94799;-89
2024/04/10 07:43:16;;;;;;;15.02;2.78;;;;;;;16.26;53.93;102725.25;5209058;26;94844;-89
2024/04/10 07:45:42;;;;;;;14.95;2.30;;;;;;;16.51;53.55;102727.47;5191289;27;95762;-89
2024/04/10 07:48:07;;;;;;;15.23;2.67;;;;;;;16.64;52.12;102730.31;5162093;27;98677;-89
2024/04/10 07:50:32;;;;;;;11.45;2.40;;;;;;;16.66;52.08;102726.84;5196258;27;94852;-88
2024/04/10 07:52:58;;;;;;;14.45;2.50;;;;;;;16.82;52.87;102730.63;5175584;27;94885;-89
2024/04/10 07:55:23;;;;;;;12.65;2.25;;;;;;;17.04;52.84;102726.63;5195068;27;97481;-89
2024/04/10 07:57:48;;;;;;;12.10;2.50;;;;;;;17.25;52.49;102730.44;5165996;27;97523;-89
2024/04/10 08:00:14;;;;;;;13.57;2.42;;;;;;;17.43;51.59;102737.75;5197169;27;94904;-86
2024/04/10 08:02:40;;;;;;;12.10;2.47;;;;;;;17.48;50.00;102749.25;5200024;27;94962;-89
2024/04/10 08:05:09;;;;;;;12.52;2.67;;;;;;;17.46;49.47;102746.59;5162799;27;97325;-89
2024/04/10 08:07:36;;;;;;;11.82;2.33;;;;;;;17.53;50.12;102754.59;5194698;27;98538;-89
2024/04/10 08:10:03;;;;;;;10.73;2.22;;;;;;;17.70;50.25;102756.59;5190267;27;94942;-89
2024/04/10 08:12:29;;;;;;;11.32;1.92;;;;;;;17.91;49.51;102743.69;5200745;26;95198;-89
2024/04/10 08:14:56;;;;;;;11.15;2.33;;;;;;;18.04;48.76;102758.84;5168593;27;98031;-90
2024/04/10 08:17:22;;;;;;;12.68;2.55;;;;;;;18.08;48.00;102758.88;5198669;27;95854;-89
2024/04/10 08:19:47;;;;;;;13.65;2.40;;;;;;;18.04;47.59;102765.00;5189749;27;94821;-89
2024/04/10 08:22:13;;;;;;;10.20;2.33;;;;;;;17.97;47.88;102765.78;5167033;27;94944;-89
2024/04/10 08:24:39;;;;;;;13.68;2.17;;;;;;;18.00;48.34;102770.19;5191403;27;96773;-89
2024/04/10 08:27:04;;;;;;;9.73;2.42;;;;;;;18.05;48.33;102771.16;5206703;27;97774;-90
2024/04/10 08:29:30;;;;;;;10.02;2.33;;;;;;;18.07;48.01;102772.97;5194288;27;94854;-89
2024/04/10 08:31:56;;;;;;;12.02;2.08;;;;;;;18.12;47.86;102778.28;5164900;27;94889;-89
2024/04/10 08:34:22;;;;;;;9.95;2.08;;;;;;;18.06;46.49;102786.13;5166582;27;98280;-89
2024/04/10 08:36:47;;;;;;;9.15;2.08;;;;;;;17.82;45.74;102795.47;5196433;27;98604;-90
2024/04/10 08:39:12;;;;;;;8.90;2.33;;;;;;;17.53;45.39;102783.63;5190723;27;94827;-90
2024/04/10 08:41:42;;;;;;;8.20;1.92;;;;;;;17.21;45.41;102795.44;5195783;27;94888;-89
2024/04/10 08:44:07;;;;;;;11.75;2.10;;;;;;;16.98;45.89;102795.06;5165533;27;97358;-89
2024/04/10 08:46:37;;;;;;;10.60;2.17;;;;;;;16.85;46.79;102801.00;5194894;27;95846;-88
2024/04/10 08:49:03;;;;;;;12.35;2.15;;;;;;;16.80;47.12;102795.59;5198041;27;94922;-90
2024/04/10 08:51:32;;;;;;;12.40;2.22;;;;;;;17.02;48.23;102799.56;5201883;27;94997;-89
2024/04/10 08:53:58;;;;;;;;;;;;;;;17.50;50.66;102805.56;5166876;27;98590;-89
2024/04/10 08:56:24;;;;;;;7.50;1.85;;;;;;;18.19;49.42;102803.91;5211808;26;98764;-89
2024/04/10 08:58:50;;;;;;;7.97;1.92;;;;;;;18.76;48.70;102806.28;5194433;27;94808;-90
2024/04/10 09:01:37;;;;;;;7.30;1.70;;;;;;;19.19;47.24;102804.91;5195620;27;95092;-90
2024/04/10 09:04:14;;;;;;;10.75;2.10;;;;;;;19.57;46.87;102811.34;5193977;27;97475;-90
2024/04/10 09:06:40;;;;;;;13.70;2.22;;;;;;;19.91;45.99;102812.47;5154854;27;97808;-91
2024/04/10 09:09:07;;;;;;;7.80;2.13;;;;;;;20.02;44.89;102816.91;5196437;27;94768;-90
2024/04/10 09:11:33;;;;;;;6.38;2.08;;;;;;;20.12;44.29;102816.09;5196492;27;95531;-90
2024/04/10 09:14:09;;;;;;;7.75;1.67;;;;;;;20.27;43.72;102817.94;5197956;27;95873;-90
2024/04/10 09:16:35;;;;;;;11.15;2.38;;;;;;;20.53;43.72;102818.91;5186887;27;98689;-90
2024/04/10 09:19:12;;;;;;;12.85;2.40;;;;;;;20.51;42.07;102835.66;5181456;27;94903;-90
2024/04/10 09:21:42;;;;;;;10.55;2.20;;;;;;;20.27;41.99;102828.53;5171480;27;94931;-93
2024/04/10 09:24:09;;;;;;;8.23;2.00;;;;;;;20.34;42.35;102831.19;5193798;27;95954;-90
2024/04/10 09:26:39;;;;;;;8.25;2.00;;;;;;;20.20;41.22;102837.34;5161878;27;98492;-88
2024/04/10 09:29:06;;;;;;;9.52;2.08;;;;;;;20.14;42.00;102841.72;5193837;27;94875;-89
2024/04/10 09:31:31;;;;;;;9.45;2.08;;;;;;;20.19;42.83;102831.13;5173823;27;94990;-89
2024/04/10 09:33:57;;;;;;;7.43;2.00;;;;;;;20.45;41.70;102831.22;5202058;27;95814;-89
2024/04/10 09:36:23;;;;;;;11.35;2.22;;;;;;;20.60;41.92;102829.50;5176821;27;97358;-89
2024/04/10 09:38:50;;;;;;;9.35;2.17;;;;;;;20.77;41.08;102821.63;5197536;27;94799;-89
2024/04/10 09:41:16;;;;;;;9.27;1.80;;;;;;;20.88;40.58;102830.47;5177375;27;95068;-89
2024/04/10 09:43:43;;;;;;;6.90;1.40;;;;;;;20.94;40.20;102830.47;5201185;27;97868;-90
2024/04/10 09:50:18;;;;;;;8.52;2.00;;;;;;;20.90;37.88;102831.34;5401324;26;94804;-91
2024/04/10 09:52:47;;;;;;;8.18;1.73;;;;;;;20.87;37.99;102839.28;5351903;26;94941;-89
2024/04/10 09:55:16;;;;;;;9.95;2.47;;;;;;;20.84;38.17;102828.72;5318277;26;98684;-90
2024/04/10 09:57:43;;;;;;;7.60;1.58;;;;;;;20.77;38.51;102833.09;5381680;26;98711;-90
2024/04/10 10:00:09;;;;;;;9.77;1.85;;;;;;;20.85;38.73;102831.34;5352939;26;94874;-89
2024/04/10 10:02:35;;;;;;;7.70;1.85;;;;;;;20.94;39.07;102840.19;5349084;26;94863;-90
2024/04/10 10:05:00;;;;;;;9.07;1.90;;;;;;;21.02;38.60;102846.41;5371361;26;98559;-90
2024/04/10 10:07:26;;;;;;;8.32;1.90;;;;;;;21.00;38.46;102853.44;5351209;26;95512;-90
2024/04/10 10:10:03;;;;;;;7.55;2.22;;;;;;;21.04;38.25;102844.63;5346371;26;94806;-89
2024/04/10 10:12:28;;;;;;;9.13;2.00;;;;;;;21.11;37.84;102857.91;5336525;26;94949;-89
2024/04/10 10:15:05;;;;;;;8.70;2.17;;;;;;;21.07;37.19;102861.44;5355758;26;95966;-89
2024/04/10 10:17:30;;;;;;;9.50;2.05;;;;;;;20.99;37.03;102865.84;5342559;26;98524;-90
2024/04/10 10:19:55;;;;;;;7.95;1.50;;;;;;;20.86;36.36;102856.13;5326962;26;94728;-89
2024/04/10 10:22:21;;;;;;;6.47;2.00;;;;;;;20.57;35.76;102848.94;5323050;26;95107;-90
2024/04/10 10:24:59;;;;;;;6.07;1.88;;;;;;;20.34;37.26;102857.69;5348895;26;95780;-90
2024/04/10 10:27:26;;;;;;;8.35;1.65;;;;;;;20.30;36.49;102861.22;5332183;26;95939;-89
2024/04/10 10:30:07;;;;;;;6.82;1.45;;;;;;;20.10;36.84;102863.75;5322484;26;94807;-90
2024/04/10 10:32:32;;;;;;;9.00;1.52;;;;;;;19.95;36.44;102869.88;5335287;26;94978;-91
2024/04/10 10:35:08;;;;;;;5.38;1.33;;;;;;;19.67;36.77;102867.91;5351473;26;98642;-89
2024/04/10 10:37:34;;;;;;;7.10;1.88;;;;;;;19.64;37.21;102879.34;5350960;26;97971;-91
2024/04/10 10:40:01;;;;;;;6.97;1.63;;;;;;;19.61;37.25;102871.41;5359351;26;94794;-91
2024/04/10 10:42:26;;;;;;;7.78;1.65;;;;;;;19.71;37.76;102861.75;5327334;26;94913;-90
2024/04/10 10:45:05;;;;;;;7.10;1.40;;;;;;;19.82;37.24;102880.38;5347582;26;95490;-90
2024/04/10 10:47:38;;;;;;;7.20;1.70;;;;;;;19.92;37.66;102885.75;5383707;26;98714;-90
2024/04/10 10:50:04;;;;;;;9.07;1.88;;;;;;;20.07;37.40;102877.03;5342967;26;95117;-91
2024/04/10 10:52:30;;;;;;;5.80;1.10;;;;;;;20.14;37.44;102877.91;5342031;26;94911;-92
2024/04/10 10:54:56;;;;;;;7.80;1.25;;;;;;;20.18;36.32;102871.78;5326241;26;97392;-91
2024/04/10 10:57:22;;;;;;;7.15;1.48;;;;;;;20.15;36.21;102877.03;5344353;26;95618;-89
2024/04/10 10:59:48;;;;;;;5.97;1.77;;;;;;;20.20;36.51;102875.31;5321740;26;94748;-89
2024/04/10 11:02:15;;;;;;;7.80;1.25;;;;;;;20.31;36.46;102862.97;5337460;26;94865;-90
2024/04/10 11:04:41;;;;;;;4.78;1.08;;;;;;;20.46;36.41;102880.72;5293281;26;97363;-91
2024/04/10 11:07:07;;;;;;;8.07;1.38;;;;;;;20.56;36.08;102870.16;5329330;26;95910;-89
2024/04/10 11:09:32;;;;;;;4.15;1.15;;;;;;;20.65;35.90;102863.13;5339865;26;94892;-90
2024/04/10 11:11:58;;;;;;;5.72;1.75;;;;;;;20.65;35.36;102864.91;5327122;26;95034;-90
2024/04/10 11:14:24;;;;;;;6.10;1.40;;;;;;;20.53;34.82;102879.88;5338931;26;94765;-89
2024/04/10 11:17:00;;;;;;;5.03;1.60;;;;;;;20.45;35.19;102873.63;5322335;26;98748;-90
2024/04/10 11:19:26;;;;;;;5.05;1.15;;;;;;;20.55;35.12;102879.84;5319648;26;94990;-94
2024/04/10 11:21:51;;;;;;;7.28;1.55;;;;;;;20.54;34.13;102881.63;5295947;26;94673;-92